sensor_id;sensor_type;location;lat;lon;timestamp;pressure;altitude;pressure_sealevel;temperature;humidity
32243;BME280;18731;42.830;24.390;2023-03-03T04:02:51;94472.31;;;4.40;84.98
32243;BME280;18731;42.830;24.390;2023-03-03T04:05:17;94471.91;;;4.33;85.43
32243;BME280;18731;42.830;24.390;2023-03-03T04:07:43;94456.41;;;4.27;85.25
32243;BME280;18731;42.830;24.390;2023-03-03T04:10:09;94467.97;;;4.31;85.44
32243;BME280;18731;42.830;24.390;2023-03-03T04:12:35;94471.06;;;4.19;86.09
32243;BME280;18731;42.830;24.390;2023-03-03T04:15:08;94468.50;;;4.14;86.95
32243;BME280;18731;42.830;24.390;2023-03-03T04:17:34;94464.72;;;4.20;86.58
32243;BME280;18731;42.830;24.390;2023-03-03T04:19:59;94462.16;;;4.15;86.76
32243;BME280;18731;42.830;24.390;2023-03-03T04:22:27;94470.06;;;4.15;87.43
32243;BME280;18731;42.830;24.390;2023-03-03T04:24:53;94473.00;;;4.13;87.19
32243;BME280;18731;42.830;24.390;2023-03-03T04:27:19;94458.00;;;4.09;86.95
32243;BME280;18731;42.830;24.390;2023-03-03T04:29:45;94464.28;;;4.13;86.95
32243;BME280;18731;42.830;24.390;2023-03-03T04:32:10;94463.22;;;4.14;86.94
32243;BME280;18731;42.830;24.390;2023-03-03T04:34:36;94457.56;;;4.20;86.81
32243;BME280;18731;42.830;24.390;2023-03-03T04:37:01;94457.78;;;4.24;86.85
32243;BME280;18731;42.830;24.390;2023-03-03T04:39:28;94458.97;;;4.32;86.28
32243;BME280;18731;42.830;24.390;2023-03-03T04:41:53;94463.75;;;4.30;86.40
32243;BME280;18731;42.830;24.390;2023-03-03T04:44:19;94458.69;;;4.33;85.86
32243;BME280;18731;42.830;24.390;2023-03-03T04:46:45;94463.88;;;4.38;85.62
32243;BME280;18731;42.830;24.390;2023-03-03T04:49:11;94463.47;;;4.31;85.92
32243;BME280;18731;42.830;24.390;2023-03-03T04:51:36;94471.13;;;4.33;86.07
32243;BME280;18731;42.830;24.390;2023-03-03T04:54:02;94473.88;;;4.41;85.85
32243;BME280;18731;42.830;24.390;2023-03-03T04:56:29;94467.59;;;4.37;85.74
32243;BME280;18731;42.830;24.390;2023-03-03T04:58:56;94464.66;;;4.39;85.40
32243;BME280;18731;42.830;24.390;2023-03-03T05:01:22;94471.53;;;4.40;85.53
32243;BME280;18731;42.830;24.390;2023-03-03T05:03:48;94472.41;;;4.35;85.47
32243;BME280;18731;42.830;24.390;2023-03-03T05:06:13;94475.13;;;4.30;85.86
32243;BME280;18731;42.830;24.390;2023-03-03T05:08:39;94473.06;;;4.27;86.11
32243;BME280;18731;42.830;24.390;2023-03-03T05:11:07;94407.84;;;3.90;85.84
32243;BME280;18731;42.830;24.390;2023-03-03T05:13:33;94475.78;;;4.22;86.48
32243;BME280;18731;42.830;24.390;2023-03-03T05:15:59;94468.41;;;4.19;86.87
32243;BME280;18731;42.830;24.390;2023-03-03T05:18:25;94480.06;;;4.18;86.80
32243;BME280;18731;42.830;24.390;2023-03-03T05:20:52;94475.06;;;4.16;86.83
32243;BME280;18731;42.830;24.390;2023-03-03T05:23:18;94470.56;;;4.17;87.35
32243;BME280;18731;42.830;24.390;2023-03-03T05:25:46;94468.91;;;4.21;87.24
32243;BME280;18731;42.830;24.390;2023-03-03T05:28:12;94472.47;;;4.30;87.25
32243;BME280;18731;42.830;24.390;2023-03-03T05:30:38;94474.53;;;4.33;87.02
32243;BME280;18731;42.830;24.390;2023-03-03T05:33:04;94474.47;;;4.38;86.86
32243;BME280;18731;42.830;24.390;2023-03-03T05:35:30;94441.63;;;4.26;86.35
32243;BME280;18731;42.830;24.390;2023-03-03T05:37:56;94470.56;;;4.49;86.26
32243;BME280;18731;42.830;24.390;2023-03-03T05:40:23;94470.50;;;4.55;86.23
32243;BME280;18731;42.830;24.390;2023-03-03T05:42:49;94471.56;;;4.53;85.58
32243;BME280;18731;42.830;24.390;2023-03-03T05:45:15;94474.13;;;4.59;85.78
32243;BME280;18731;42.830;24.390;2023-03-03T05:47:45;94477.25;;;4.61;85.60
32243;BME280;18731;42.830;24.390;2023-03-03T05:50:11;94461.97;;;4.58;85.48
32243;BME280;18731;42.830;24.390;2023-03-03T05:52:37;94471.59;;;4.67;84.84
32243;BME280;18731;42.830;24.390;2023-03-03T05:55:03;94482.28;;;4.76;84.93
32243;BME280;18731;42.830;24.390;2023-03-03T05:57:28;94473.16;;;4.68;84.85
32243;BME280;18731;42.830;24.390;2023-03-03T05:59:54;94482.19;;;4.81;84.31
32243;BME280;18731;42.830;24.390;2023-03-03T06:02:20;94486.13;;;4.83;84.52
32243;BME280;18731;42.830;24.390;2023-03-03T06:04:45;94472.41;;;4.81;84.03
32243;BME280;18731;42.830;24.390;2023-03-03T06:07:11;94480.44;;;4.90;83.90
32243;BME280;18731;42.830;24.390;2023-03-03T06:09:36;94480.94;;;4.92;84.38
32243;BME280;18731;42.830;24.390;2023-03-03T06:12:02;94478.97;;;4.84;84.53
32243;BME280;18731;42.830;24.390;2023-03-03T06:14:27;94480.06;;;4.97;84.12
32243;BME280;18731;42.830;24.390;2023-03-03T06:16:53;94477.91;;;4.99;83.28
32243;BME280;18731;42.830;24.390;2023-03-03T06:19:19;94488.09;;;4.92;83.58
32243;BME280;18731;42.830;24.390;2023-03-03T06:21:44;94479.47;;;4.86;83.84
32243;BME280;18731;42.830;24.390;2023-03-03T06:24:10;94479.25;;;4.82;84.43
32243;BME280;18731;42.830;24.390;2023-03-03T06:26:36;94471.31;;;4.69;85.18
32243;BME280;18731;42.830;24.390;2023-03-03T06:29:01;94477.28;;;4.74;84.96
32243;BME280;18731;42.830;24.390;2023-03-03T06:31:27;94468.75;;;4.64;85.26
32243;BME280;18731;42.830;24.390;2023-03-03T06:33:53;94478.56;;;4.77;85.25
32243;BME280;18731;42.830;24.390;2023-03-03T06:36:19;94488.84;;;4.78;85.14
32243;BME280;18731;42.830;24.390;2023-03-03T06:38:45;94491.28;;;4.75;85.28
32243;BME280;18731;42.830;24.390;2023-03-03T06:41:10;94495.03;;;4.74;85.32
32243;BME280;18731;42.830;24.390;2023-03-03T06:43:37;94475.53;;;4.70;85.71
32243;BME280;18731;42.830;24.390;2023-03-03T06:46:04;94484.84;;;4.81;85.13
32243;BME280;18731;42.830;24.390;2023-03-03T06:48:31;94489.06;;;4.82;85.56
32243;BME280;18731;42.830;24.390;2023-03-03T06:50:58;94486.31;;;4.87;85.42
32243;BME280;18731;42.830;24.390;2023-03-03T06:53:24;94486.16;;;4.97;85.19
32243;BME280;18731;42.830;24.390;2023-03-03T06:55:50;94480.44;;;4.90;85.05
32243;BME280;18731;42.830;24.390;2023-03-03T06:58:18;94481.94;;;4.96;85.12
32243;BME280;18731;42.830;24.390;2023-03-03T07:00:52;94485.28;;;5.15;83.92
32243;BME280;18731;42.830;24.390;2023-03-03T07:03:23;94485.59;;;5.28;82.96
32243;BME280;18731;42.830;24.390;2023-03-03T07:05:49;94491.78;;;5.37;83.76
32243;BME280;18731;42.830;24.390;2023-03-03T07:08:21;94483.63;;;5.47;83.29
32243;BME280;18731;42.830;24.390;2023-03-03T07:10:49;94481.97;;;5.51;82.91
32243;BME280;18731;42.830;24.390;2023-03-03T07:13:24;94486.16;;;5.66;80.93
32243;BME280;18731;42.830;24.390;2023-03-03T07:15:52;94475.19;;;5.72;80.32
32243;BME280;18731;42.830;24.390;2023-03-03T07:21:49;94475.63;;;5.88;79.21
32243;BME280;18731;42.830;24.390;2023-03-03T07:26:40;94454.69;;;5.64;78.58
32243;BME280;18731;42.830;24.390;2023-03-03T07:31:47;94472.78;;;5.85;78.63
32243;BME280;18731;42.830;24.390;2023-03-03T07:34:22;94471.94;;;5.89;79.05
32243;BME280;18731;42.830;24.390;2023-03-03T07:36:51;94459.84;;;5.97;78.12
32243;BME280;18731;42.830;24.390;2023-03-03T07:39:26;94464.31;;;6.10;77.49
32243;BME280;18731;42.830;24.390;2023-03-03T07:41:59;94459.38;;;6.17;75.71
32243;BME280;18731;42.830;24.390;2023-03-03T07:44:36;94462.41;;;6.24;76.47
32243;BME280;18731;42.830;24.390;2023-03-03T07:47:19;94453.25;;;6.30;77.02
32243;BME280;18731;42.830;24.390;2023-03-03T07:49:47;94437.28;;;6.22;76.93
32243;BME280;18731;42.830;24.390;2023-03-03T07:52:30;94456.44;;;6.41;76.68
32243;BME280;18731;42.830;24.390;2023-03-03T07:55:00;94460.00;;;6.36;75.57
32243;BME280;18731;42.830;24.390;2023-03-03T07:57:32;94463.00;;;6.43;76.18
32243;BME280;18731;42.830;24.390;2023-03-03T08:05:28;94451.06;;;6.32;75.87
32243;BME280;18731;42.830;24.390;2023-03-03T08:10:36;94449.25;;;6.41;75.62
32243;BME280;18731;42.830;24.390;2023-03-03T08:16:03;94450.97;;;6.37;74.44
32243;BME280;18731;42.830;24.390;2023-03-03T08:18:49;94451.38;;;6.31;74.78
32243;BME280;18731;42.830;24.390;2023-03-03T08:21:21;94444.69;;;6.33;75.00
32243;BME280;18731;42.830;24.390;2023-03-03T08:23:47;94439.22;;;6.30;74.79
32243;BME280;18731;42.830;24.390;2023-03-03T08:26:21;94438.44;;;6.29;75.43
32243;BME280;18731;42.830;24.390;2023-03-03T08:28:47;94436.84;;;6.28;74.95
32243;BME280;18731;42.830;24.390;2023-03-03T08:31:14;94427.81;;;6.29;74.16
32243;BME280;18731;42.830;24.390;2023-03-03T08:33:39;94431.78;;;6.40;74.47
32243;BME280;18731;42.830;24.390;2023-03-03T08:36:06;94427.56;;;6.39;73.25
32243;BME280;18731;42.830;24.390;2023-03-03T08:38:32;94431.50;;;6.42;72.29
32243;BME280;18731;42.830;24.390;2023-03-03T08:40:58;94413.59;;;6.25;72.64
32243;BME280;18731;42.830;24.390;2023-03-03T08:43:24;94415.53;;;6.33;73.17
32243;BME280;18731;42.830;24.390;2023-03-03T08:45:55;94422.75;;;6.41;72.58
32243;BME280;18731;42.830;24.390;2023-03-03T08:48:22;94421.84;;;6.46;71.46
32243;BME280;18731;42.830;24.390;2023-03-03T08:50:48;94416.06;;;6.44;72.65
32243;BME280;18731;42.830;24.390;2023-03-03T08:53:15;94426.00;;;6.61;72.30
32243;BME280;18731;42.830;24.390;2023-03-03T08:55:42;94424.78;;;6.67;71.89
32243;BME280;18731;42.830;24.390;2023-03-03T08:58:08;94422.34;;;6.79;71.94
32243;BME280;18731;42.830;24.390;2023-03-03T09:00:35;94423.63;;;6.90;71.92
32243;BME280;18731;42.830;24.390;2023-03-03T09:03:00;94424.44;;;6.99;70.79
32243;BME280;18731;42.830;24.390;2023-03-03T09:05:26;94418.22;;;7.04;69.76
32243;BME280;18731;42.830;24.390;2023-03-03T09:07:53;94414.31;;;7.01;70.48
32243;BME280;18731;42.830;24.390;2023-03-03T09:10:23;94423.22;;;7.05;69.62
32243;BME280;18731;42.830;24.390;2023-03-03T09:12:54;94422.47;;;7.14;69.97
32243;BME280;18731;42.830;24.390;2023-03-03T09:15:25;94414.38;;;7.19;70.03
32243;BME280;18731;42.830;24.390;2023-03-03T09:17:52;94405.00;;;7.13;68.79
32243;BME280;18731;42.830;24.390;2023-03-03T09:20:30;94410.97;;;7.27;69.53
32243;BME280;18731;42.830;24.390;2023-03-03T09:25:58;94412.09;;;7.43;69.95
32243;BME280;18731;42.830;24.390;2023-03-03T09:28:36;94415.06;;;7.50;69.05
32243;BME280;18731;42.830;24.390;2023-03-03T09:31:02;94414.78;;;7.60;68.04
32243;BME280;18731;42.830;24.390;2023-03-03T09:33:46;94396.50;;;7.59;68.70
32243;BME280;18731;42.830;24.390;2023-03-03T09:36:24;94406.66;;;7.65;67.97
32243;BME280;18731;42.830;24.390;2023-03-03T09:38:51;94409.47;;;7.60;69.19
32243;BME280;18731;42.830;24.390;2023-03-03T09:47:10;94407.44;;;7.74;67.29
32243;BME280;18731;42.830;24.390;2023-03-03T09:57:39;94403.75;;;7.84;67.81
32243;BME280;18731;42.830;24.390;2023-03-03T10:00:53;94401.41;;;7.83;68.65
32243;BME280;18731;42.830;24.390;2023-03-03T10:06:41;94403.22;;;7.73;68.00
32243;BME280;18731;42.830;24.390;2023-03-03T10:23:54;94393.53;;;7.60;68.75
32243;BME280;18731;42.830;24.390;2023-03-03T10:53:31;94373.56;;;8.06;69.73
32243;BME280;18731;42.830;24.390;2023-03-03T11:04:32;94366.34;;;8.32;69.17
32243;BME280;18731;42.830;24.390;2023-03-03T11:07:10;94364.63;;;8.28;69.62
32243;BME280;18731;42.830;24.390;2023-03-03T11:15:21;94356.94;;;8.44;69.97
32243;BME280;18731;42.830;24.390;2023-03-03T11:20:39;94352.50;;;8.65;69.78
32243;BME280;18731;42.830;24.390;2023-03-03T11:36:57;94333.81;;;9.12;64.61
32243;BME280;18731;42.830;24.390;2023-03-03T11:39:26;94333.81;;;9.12;64.97
32243;BME280;18731;42.830;24.390;2023-03-03T11:41:57;94330.78;;;9.22;64.91
32243;BME280;18731;42.830;24.390;2023-03-03T11:44:36;94323.25;;;9.24;64.90
32243;BME280;18731;42.830;24.390;2023-03-03T11:50:01;94326.31;;;9.34;66.54
32243;BME280;18731;42.830;24.390;2023-03-03T11:52:46;94319.13;;;9.35;66.26
32243;BME280;18731;42.830;24.390;2023-03-03T11:55:36;94317.38;;;9.39;67.04
32243;BME280;18731;42.830;24.390;2023-03-03T12:03:39;94303.59;;;9.79;67.76
32243;BME280;18731;42.830;24.390;2023-03-03T12:12:24;94296.00;;;10.22;68.30
32243;BME280;18731;42.830;24.390;2023-03-03T12:25:42;94292.44;;;10.30;61.14
32243;BME280;18731;42.830;24.390;2023-03-03T12:28:19;94294.91;;;10.36;63.93
32243;BME280;18731;42.830;24.390;2023-03-03T12:33:41;94298.72;;;10.47;64.29
32243;BME280;18731;42.830;24.390;2023-03-03T12:36:22;94299.56;;;10.39;67.11
32243;BME280;18731;42.830;24.390;2023-03-03T12:41:56;94302.22;;;10.26;66.27
32243;BME280;18731;42.830;24.390;2023-03-03T12:44:47;94303.91;;;10.10;66.34
32243;BME280;18731;42.830;24.390;2023-03-03T12:47:21;94304.44;;;10.04;67.19
32243;BME280;18731;42.830;24.390;2023-03-03T12:50:26;94305.72;;;9.85;68.76
32243;BME280;18731;42.830;24.390;2023-03-03T12:56:06;94303.84;;;9.86;68.87
32243;BME280;18731;42.830;24.390;2023-03-03T13:12:44;94294.81;;;9.16;70.81
32243;BME280;18731;42.830;24.390;2023-03-03T13:15:34;94289.53;;;9.07;70.74
32243;BME280;18731;42.830;24.390;2023-03-03T13:26:21;94285.91;;;9.12;69.38
32243;BME280;18731;42.830;24.390;2023-03-03T13:28:58;94285.09;;;8.90;69.62
32243;BME280;18731;42.830;24.390;2023-03-03T13:31:33;94292.00;;;8.83;69.78
32243;BME280;18731;42.830;24.390;2023-03-03T13:34:00;94295.84;;;8.64;69.65
32243;BME280;18731;42.830;24.390;2023-03-03T13:36:43;94283.13;;;8.41;70.72
32243;BME280;18731;42.830;24.390;2023-03-03T13:42:28;94284.84;;;8.36;71.36
32243;BME280;18731;42.830;24.390;2023-03-03T13:44:59;94294.06;;;8.39;71.47
32243;BME280;18731;42.830;24.390;2023-03-03T13:47:44;94274.41;;;8.14;72.45
32243;BME280;18731;42.830;24.390;2023-03-03T13:55:49;94294.31;;;7.99;71.27
32243;BME280;18731;42.830;24.390;2023-03-03T13:58:33;94297.59;;;8.05;72.30
32243;BME280;18731;42.830;24.390;2023-03-03T14:01:03;94293.38;;;8.04;71.64
32243;BME280;18731;42.830;24.390;2023-03-03T14:03:59;94301.19;;;8.00;71.42
32243;BME280;18731;42.830;24.390;2023-03-03T14:06:29;94272.91;;;7.79;72.06
32243;BME280;18731;42.830;24.390;2023-03-03T14:11:40;94285.72;;;7.77;72.04
32243;BME280;18731;42.830;24.390;2023-03-03T14:17:37;94288.53;;;7.37;73.65
32243;BME280;18731;42.830;24.390;2023-03-03T14:20:02;94291.81;;;7.51;74.63
32243;BME280;18731;42.830;24.390;2023-03-03T14:25:13;94289.47;;;7.41;74.29
32243;BME280;18731;42.830;24.390;2023-03-03T14:30:27;94293.22;;;7.23;74.01
32243;BME280;18731;42.830;24.390;2023-03-03T14:33:20;94289.00;;;7.22;74.47
32243;BME280;18731;42.830;24.390;2023-03-03T14:36:00;94293.84;;;7.20;74.46
32243;BME280;18731;42.830;24.390;2023-03-03T14:41:12;94292.91;;;7.33;75.46
32243;BME280;18731;42.830;24.390;2023-03-03T14:43:40;94283.69;;;7.39;74.62
32243;BME280;18731;42.830;24.390;2023-03-03T14:48:57;94293.06;;;7.36;74.83
32243;BME280;18731;42.830;24.390;2023-03-03T14:54:26;94294.78;;;7.41;74.92
32243;BME280;18731;42.830;24.390;2023-03-03T14:59:31;94301.03;;;7.45;75.24
32243;BME280;18731;42.830;24.390;2023-03-03T15:02:27;94295.72;;;7.45;75.27
32243;BME280;18731;42.830;24.390;2023-03-03T15:05:17;94281.34;;;7.46;74.27
32243;BME280;18731;42.830;24.390;2023-03-03T15:07:46;94297.59;;;7.53;74.61
32243;BME280;18731;42.830;24.390;2023-03-03T15:12:53;94308.38;;;7.48;74.37
32243;BME280;18731;42.830;24.390;2023-03-03T15:15:21;94303.53;;;7.50;74.42
32243;BME280;18731;42.830;24.390;2023-03-03T15:23:10;94300.56;;;7.43;74.76
32243;BME280;18731;42.830;24.390;2023-03-03T15:28:31;94302.75;;;7.50;74.83
32243;BME280;18731;42.830;24.390;2023-03-03T15:37:24;94309.00;;;7.45;75.33
32243;BME280;18731;42.830;24.390;2023-03-03T15:47:57;94313.53;;;7.36;75.80
32243;BME280;18731;42.830;24.390;2023-03-03T15:50:29;94314.78;;;7.47;75.29
32243;BME280;18731;42.830;24.390;2023-03-03T15:58:48;94320.25;;;7.51;76.33
32243;BME280;18731;42.830;24.390;2023-03-03T16:03:52;94325.72;;;7.54;76.14
32243;BME280;18731;42.830;24.390;2023-03-03T16:12:30;94330.88;;;7.42;76.33
32243;BME280;18731;42.830;24.390;2023-03-03T16:20:29;94340.25;;;7.48;76.49
32243;BME280;18731;42.830;24.390;2023-03-03T16:28:09;94335.56;;;7.36;76.67
32243;BME280;18731;42.830;24.390;2023-03-03T16:30:56;94351.97;;;7.47;77.00
32243;BME280;18731;42.830;24.390;2023-03-03T16:34:03;94354.47;;;7.52;77.00
32243;BME280;18731;42.830;24.390;2023-03-03T16:39:14;94361.19;;;7.50;77.26
32243;BME280;18731;42.830;24.390;2023-03-03T16:44:46;94362.09;;;7.36;78.60
32243;BME280;18731;42.830;24.390;2023-03-03T16:52:44;94373.78;;;7.18;79.30
32243;BME280;18731;42.830;24.390;2023-03-03T16:55:20;94377.34;;;7.05;79.50
32243;BME280;18731;42.830;24.390;2023-03-03T16:57:58;94379.97;;;6.96;79.86
32243;BME280;18731;42.830;24.390;2023-03-03T17:00:36;94383.53;;;6.92;80.34
32243;BME280;18731;42.830;24.390;2023-03-03T17:03:22;94386.00;;;6.88;80.42
32243;BME280;18731;42.830;24.390;2023-03-03T17:06:17;94386.75;;;6.80;80.97
32243;BME280;18731;42.830;24.390;2023-03-03T17:08:51;94394.06;;;6.74;81.60
32243;BME280;18731;42.830;24.390;2023-03-03T17:11:26;94393.72;;;6.67;82.02
32243;BME280;18731;42.830;24.390;2023-03-03T17:14:18;94378.34;;;6.47;82.36
32243;BME280;18731;42.830;24.390;2023-03-03T17:17:12;94388.94;;;6.47;82.82
32243;BME280;18731;42.830;24.390;2023-03-03T17:28:04;94410.34;;;6.06;85.93
32243;BME280;18731;42.830;24.390;2023-03-03T17:36:35;94412.16;;;5.97;86.94
32243;BME280;18731;42.830;24.390;2023-03-03T17:40:11;94414.81;;;5.97;86.99
32243;BME280;18731;42.830;24.390;2023-03-03T17:47:08;94426.34;;;5.65;88.50
32243;BME280;18731;42.830;24.390;2023-03-03T17:52:12;94430.38;;;5.62;89.60
32243;BME280;18731;42.830;24.390;2023-03-03T18:08:23;94438.09;;;5.72;88.81
32243;BME280;18731;42.830;24.390;2023-03-03T18:11:12;94440.66;;;5.64;88.99
32243;BME280;18731;42.830;24.390;2023-03-03T18:19:16;94448.34;;;5.52;90.11
32243;BME280;18731;42.830;24.390;2023-03-03T18:40:56;94458.00;;;5.84;87.54
32243;BME280;18731;42.830;24.390;2023-03-03T18:51:49;94477.91;;;5.81;88.54
32243;BME280;18731;42.830;24.390;2023-03-03T19:05:04;94486.44;;;5.92;87.63
32243;BME280;18731;42.830;24.390;2023-03-03T19:16:01;94487.88;;;6.11;86.68
32243;BME280;18731;42.830;24.390;2023-03-03T19:24:01;94495.28;;;6.23;85.52
32243;BME280;18731;42.830;24.390;2023-03-03T19:26:35;94500.59;;;6.23;85.68
32243;BME280;18731;42.830;24.390;2023-03-03T19:35:01;94504.63;;;6.21;84.84
32243;BME280;18731;42.830;24.390;2023-03-03T19:37:15;94503.91;;;6.29;84.90
32243;BME280;18731;42.830;24.390;2023-03-03T19:40:10;94504.31;;;6.22;85.15
32243;BME280;18731;42.830;24.390;2023-03-03T19:42:58;94505.16;;;6.09;85.74
32243;BME280;18731;42.830;24.390;2023-03-03T19:45:44;94512.59;;;6.07;86.18
32243;BME280;18731;42.830;24.390;2023-03-03T19:48:56;94509.28;;;6.01;86.21
32243;BME280;18731;42.830;24.390;2023-03-03T19:51:33;94514.22;;;5.94;86.73
32243;BME280;18731;42.830;24.390;2023-03-03T19:54:25;94512.34;;;5.95;86.82
32243;BME280;18731;42.830;24.390;2023-03-03T19:56:59;94514.00;;;5.91;87.04
32243;BME280;18731;42.830;24.390;2023-03-03T19:59:42;94517.81;;;5.98;86.70
32243;BME280;18731;42.830;24.390;2023-03-03T20:04:47;94521.25;;;5.85;87.94
32243;BME280;18731;42.830;24.390;2023-03-03T20:10:46;94536.00;;;5.91;87.64
32243;BME280;18731;42.830;24.390;2023-03-03T20:13:36;94532.84;;;5.75;88.01
32243;BME280;18731;42.830;24.390;2023-03-03T20:16:24;94531.66;;;5.81;88.07
32243;BME280;18731;42.830;24.390;2023-03-03T20:25:14;94534.78;;;5.84;88.22
32243;BME280;18731;42.830;24.390;2023-03-03T20:33:47;94527.81;;;5.88;87.75
32243;BME280;18731;42.830;24.390;2023-03-03T20:36:25;94524.50;;;5.96;86.94
32243;BME280;18731;42.830;24.390;2023-03-03T20:45:06;94520.66;;;6.02;86.68
32243;BME280;18731;42.830;24.390;2023-03-03T20:50:28;94519.47;;;6.08;86.23
32243;BME280;18731;42.830;24.390;2023-03-03T20:53:27;94521.84;;;5.96;86.53
32243;BME280;18731;42.830;24.390;2023-03-03T20:56:17;94516.38;;;5.92;86.91
32243;BME280;18731;42.830;24.390;2023-03-03T20:59:15;94514.81;;;5.91;86.88
32243;BME280;18731;42.830;24.390;2023-03-03T21:04:29;94505.25;;;6.04;86.56
32243;BME280;18731;42.830;24.390;2023-03-03T21:06:56;94507.50;;;6.10;86.00
32243;BME280;18731;42.830;24.390;2023-03-03T21:09:28;94505.16;;;6.09;86.08
32243;BME280;18731;42.830;24.390;2023-03-03T21:11:56;94503.94;;;6.15;85.66
32243;BME280;18731;42.830;24.390;2023-03-03T21:14:30;94501.41;;;6.10;85.84
32243;BME280;18731;42.830;24.390;2023-03-03T21:16:59;94494.38;;;6.05;85.71
32243;BME280;18731;42.830;24.390;2023-03-03T21:19:33;94505.75;;;6.06;86.20
32243;BME280;18731;42.830;24.390;2023-03-03T21:22:00;94497.78;;;6.06;86.01
32243;BME280;18731;42.830;24.390;2023-03-03T21:24:48;94493.75;;;6.08;85.87
32243;BME280;18731;42.830;24.390;2023-03-03T21:30:04;94477.19;;;6.03;85.86
32243;BME280;18731;42.830;24.390;2023-03-03T21:35:06;94477.81;;;6.22;85.36
32243;BME280;18731;42.830;24.390;2023-03-03T21:40:18;94487.22;;;6.28;84.45
32243;BME280;18731;42.830;24.390;2023-03-03T21:42:45;94483.47;;;6.29;84.55
32243;BME280;18731;42.830;24.390;2023-03-03T21:45:12;94486.63;;;6.31;84.49
32243;BME280;18731;42.830;24.390;2023-03-03T21:47:39;94486.03;;;6.34;84.58
32243;BME280;18731;42.830;24.390;2023-03-03T21:50:06;94478.38;;;6.33;84.64
32243;BME280;18731;42.830;24.390;2023-03-03T21:52:32;94499.75;;;6.36;84.38
32243;BME280;18731;42.830;24.390;2023-03-03T21:54:57;94495.59;;;6.44;84.21
32243;BME280;18731;42.830;24.390;2023-03-03T21:57:23;94495.31;;;6.45;83.96
32243;BME280;18731;42.830;24.390;2023-03-03T21:59:50;94509.16;;;6.42;83.89
32243;BME280;18731;42.830;24.390;2023-03-03T22:02:16;94509.75;;;6.39;83.78
32243;BME280;18731;42.830;24.390;2023-03-03T22:04:42;94507.22;;;6.34;83.82
32243;BME280;18731;42.830;24.390;2023-03-03T22:07:08;94509.09;;;6.34;83.70
32243;BME280;18731;42.830;24.390;2023-03-03T22:09:34;94494.88;;;6.30;83.75
32243;BME280;18731;42.830;24.390;2023-03-03T22:12:00;94500.97;;;6.30;83.65
32243;BME280;18731;42.830;24.390;2023-03-03T22:14:26;94507.28;;;6.43;83.71
32243;BME280;18731;42.830;24.390;2023-03-03T22:16:52;94506.50;;;6.42;83.67
32243;BME280;18731;42.830;24.390;2023-03-03T22:19:17;94505.13;;;6.45;83.81
32243;BME280;18731;42.830;24.390;2023-03-03T22:21:43;94504.22;;;6.50;83.41
32243;BME280;18731;42.830;24.390;2023-03-03T22:24:08;94503.13;;;6.51;82.91
32243;BME280;18731;42.830;24.390;2023-03-03T22:26:34;94500.78;;;6.49;83.23
32243;BME280;18731;42.830;24.390;2023-03-03T22:29:00;94477.81;;;6.44;83.02
